createdAt,value
2023-02-22T00:02:11.250Z,59.63
2023-02-22T00:04:39.872Z,60.03
2023-02-22T00:07:07.957Z,59.44
2023-02-22T00:09:35.055Z,59.22
2023-02-22T00:12:02.419Z,58.89
2023-02-22T00:14:29.545Z,59.12
2023-02-22T00:16:59.773Z,60.01
2023-02-22T00:19:28.261Z,59.34
2023-02-22T00:21:55.557Z,59.47
2023-02-22T00:24:25.650Z,59.47
2023-02-22T00:26:55.831Z,59.74
2023-02-22T00:29:26.366Z,59.56
2023-02-22T00:31:54.244Z,60.16
2023-02-22T00:34:23.576Z,60.11
2023-02-22T00:36:50.802Z,60.20
2023-02-22T00:39:18.434Z,59.33
2023-02-22T00:41:45.624Z,59.88
2023-02-22T00:44:13.045Z,60.65
2023-02-22T00:46:40.263Z,60.60
2023-02-22T00:49:07.632Z,59.89
2023-02-22T00:51:34.919Z,59.38
2023-02-22T00:54:02.243Z,60.04
2023-02-22T00:56:29.334Z,59.86
2023-02-22T00:58:56.448Z,60.22
2023-02-22T01:01:24.439Z,59.51
2023-02-22T01:03:51.805Z,59.72
2023-02-22T01:06:19.653Z,59.75
2023-02-22T01:08:48.073Z,59.56
2023-02-22T01:11:17.091Z,59.76
2023-02-22T01:13:45.528Z,60.64
2023-02-22T01:16:12.995Z,59.83
2023-02-22T01:18:40.390Z,59.72
2023-02-22T01:21:08.735Z,60.25
2023-02-22T01:23:35.859Z,60.07
2023-02-22T01:26:06.226Z,60.07
2023-02-22T01:28:34.443Z,59.73
2023-02-22T01:31:03.433Z,60.12
2023-02-22T01:33:31.471Z,59.81
2023-02-22T01:35:59.843Z,59.88
2023-02-22T01:38:27.875Z,59.81
2023-02-22T01:40:55.207Z,60.11
2023-02-22T01:43:29.947Z,60.21
2023-02-22T01:46:02.118Z,60.73
2023-02-22T01:48:41.752Z,59.96
2023-02-22T01:51:28.584Z,60.57
2023-02-22T01:54:00.389Z,60.65
2023-02-22T01:56:29.889Z,60.36
2023-02-22T01:59:02.335Z,60.81
2023-02-22T02:01:30.533Z,60.59
2023-02-22T02:04:00.384Z,60.74
2023-02-22T02:06:31.490Z,60.56
2023-02-22T02:09:44.929Z,60.90
2023-02-22T02:12:14.336Z,60.64
2023-02-22T02:14:44.088Z,60.24
2023-02-22T02:17:15.506Z,60.20
2023-02-22T02:20:07.321Z,61.11
2023-02-22T02:22:46.513Z,60.53
2023-02-22T02:25:35.124Z,60.18
2023-02-22T02:28:40.912Z,60.54
2023-02-22T02:31:39.486Z,60.31
2023-02-22T02:34:29.763Z,59.91
2023-02-22T02:37:15.572Z,60.59
2023-02-22T02:39:56.838Z,61.05
2023-02-22T02:42:33.716Z,61.11
2023-02-22T02:45:12.623Z,60.57
2023-02-22T02:47:48.233Z,59.91
2023-02-22T02:50:27.842Z,60.86
2023-02-22T02:52:58.961Z,60.33
2023-02-22T02:55:30.723Z,60.78
2023-02-22T02:57:57.809Z,60.07
2023-02-22T03:00:29.957Z,60.17
2023-02-22T03:03:24.111Z,60.89
2023-02-22T03:06:09.462Z,61.14
2023-02-22T03:08:56.542Z,60.39
2023-02-22T03:11:28.908Z,61.60
2023-02-22T03:14:16.185Z,61.39
2023-02-22T03:17:04.968Z,60.86
2023-02-22T03:19:39.792Z,60.98
2023-02-22T03:22:09.210Z,60.88
2023-02-22T03:24:54.889Z,60.60
2023-02-22T03:27:29.144Z,60.71
2023-02-22T03:30:05.093Z,61.22
2023-02-22T03:32:38.578Z,61.04
2023-02-22T03:35:14.120Z,61.05
2023-02-22T03:37:47.214Z,60.97
2023-02-22T03:40:26.264Z,61.45
2023-02-22T03:43:06.914Z,61.09
2023-02-22T03:45:40.889Z,60.90
2023-02-22T03:48:27.787Z,61.04
2023-02-22T03:50:55.182Z,60.99
2023-02-22T03:53:23.420Z,60.64
2023-02-22T03:55:55.790Z,61.01
2023-02-22T03:58:28.091Z,61.00
2023-02-22T04:00:55.928Z,60.69
2023-02-22T04:03:24.041Z,60.51
2023-02-22T04:05:52.874Z,60.72
2023-02-22T04:08:21.438Z,60.36
2023-02-22T04:10:48.788Z,60.43
2023-02-22T04:13:18.709Z,60.19
2023-02-22T04:15:48.544Z,60.59
2023-02-22T04:18:16.510Z,60.37
2023-02-22T04:20:46.269Z,60.39
2023-02-22T04:23:21.544Z,60.12
2023-02-22T04:25:49.382Z,60.29
2023-02-22T04:28:19.783Z,60.33
2023-02-22T04:30:52.807Z,60.52
2023-02-22T04:33:20.439Z,60.21
2023-02-22T04:35:47.797Z,60.69
2023-02-22T04:38:15.531Z,60.26
2023-02-22T04:40:42.662Z,59.93
2023-02-22T04:43:09.956Z,60.18
2023-02-22T04:45:37.285Z,60.65
2023-02-22T04:48:06.238Z,60.38
2023-02-22T04:50:33.521Z,59.76
2023-02-22T04:53:00.664Z,60.12
2023-02-22T04:55:30.548Z,59.92
2023-02-22T04:57:58.060Z,60.67
2023-02-22T05:00:25.536Z,60.08
2023-02-22T05:02:57.335Z,60.17
2023-02-22T05:05:24.640Z,60.19
2023-02-22T05:07:52.014Z,60.57
2023-02-22T05:10:20.059Z,60.38
2023-02-22T05:12:47.341Z,60.19
2023-02-22T05:15:20.445Z,60.29
2023-02-22T05:17:48.301Z,60.02
2023-02-22T05:20:28.955Z,60.57
2023-02-22T05:23:00.591Z,59.85
2023-02-22T05:25:28.492Z,59.99
2023-02-22T05:27:58.111Z,59.94
2023-02-22T05:30:30.611Z,59.92
2023-02-22T05:32:59.554Z,59.96
2023-02-22T05:35:27.819Z,59.56
2023-02-22T05:37:55.555Z,59.72
2023-02-22T05:40:25.527Z,60.23
2023-02-22T05:42:53.800Z,59.93
2023-02-22T05:45:23.169Z,60.20
2023-02-22T05:47:50.898Z,60.71
2023-02-22T05:50:19.915Z,59.69
2023-02-22T05:52:49.033Z,60.06
2023-02-22T05:55:19.006Z,60.10
2023-02-22T05:57:47.182Z,59.93
2023-02-22T06:00:23.406Z,59.88
2023-02-22T06:03:00.101Z,60.08
2023-02-22T06:05:30.477Z,59.79
2023-02-22T06:07:58.979Z,59.48
2023-02-22T06:10:27.294Z,59.59
2023-02-22T06:12:55.124Z,59.03
2023-02-22T06:15:24.132Z,58.91
2023-02-22T06:17:51.840Z,59.35
2023-02-22T06:20:22.836Z,59.22
2023-02-22T06:22:54.211Z,59.18
2023-02-22T06:25:24.520Z,59.21
2023-02-22T06:27:51.726Z,59.46
2023-02-22T06:30:21.538Z,59.26
2023-02-22T06:32:48.737Z,59.35
2023-02-22T06:35:16.897Z,58.99
2023-02-22T06:37:44.026Z,58.98
2023-02-22T06:40:11.637Z,58.44
2023-02-22T06:42:39.511Z,58.88
2023-02-22T06:45:07.622Z,58.73
2023-02-22T06:47:39.787Z,58.59
2023-02-22T06:50:08.089Z,58.18
2023-02-22T06:52:35.247Z,58.62
2023-02-22T06:55:02.383Z,57.74
2023-02-22T06:57:30.454Z,57.20
2023-02-22T06:59:57.585Z,57.67
2023-02-22T07:02:24.763Z,58.13
2023-02-22T07:04:51.908Z,57.20
2023-02-22T07:07:19.008Z,57.53
2023-02-22T07:09:48.034Z,57.47
2023-02-22T07:12:15.165Z,56.66
2023-02-22T07:14:42.901Z,56.86
2023-02-22T07:17:10.133Z,57.34
2023-02-22T07:19:37.184Z,57.91
2023-02-22T07:22:04.326Z,58.40
2023-02-22T07:24:31.492Z,55.55
2023-02-22T07:27:02.053Z,54.85
2023-02-22T07:29:29.276Z,55.83
2023-02-22T07:31:57.852Z,53.73
2023-02-22T07:34:25.017Z,50.01
2023-02-22T07:36:52.155Z,52.93
2023-02-22T07:39:19.381Z,51.70
2023-02-22T07:41:46.684Z,51.35
2023-02-22T07:44:24.024Z,50.51
2023-02-22T07:46:51.098Z,51.50
2023-02-22T07:49:18.661Z,50.73
2023-02-22T07:51:45.956Z,51.03
2023-02-22T07:54:13.154Z,52.01
2023-02-22T07:56:49.556Z,51.88
2023-02-22T07:59:16.913Z,51.22
2023-02-22T08:01:44.451Z,50.56
2023-02-22T08:04:11.633Z,49.60
2023-02-22T08:06:38.898Z,48.54
2023-02-22T08:09:06.148Z,47.79
2023-02-22T08:11:33.455Z,48.92
2023-02-22T08:14:00.656Z,49.77
2023-02-22T08:16:28.018Z,48.34
2023-02-22T08:18:55.226Z,47.25
2023-02-22T08:21:22.431Z,47.85
2023-02-22T08:23:54.555Z,48.27
2023-02-22T08:26:21.759Z,46.83
2023-02-22T08:28:49.098Z,48.55
2023-02-22T08:31:16.555Z,46.59
2023-02-22T08:33:47.132Z,45.15
2023-02-22T08:36:14.232Z,45.98
2023-02-22T08:38:41.591Z,46.33
2023-02-22T08:41:11.306Z,46.76
2023-02-22T08:43:38.506Z,45.40
2023-02-22T08:46:05.660Z,40.06
2023-02-22T08:48:32.881Z,40.34
2023-02-22T08:51:00.101Z,36.25
2023-02-22T08:53:27.365Z,37.86
2023-02-22T08:55:56.877Z,35.48
2023-02-22T08:58:23.964Z,35.89
2023-02-22T09:00:51.174Z,37.15
2023-02-22T09:03:18.504Z,34.17
2023-02-22T09:05:45.789Z,33.19
2023-02-22T09:08:13.106Z,32.14
2023-02-22T09:10:40.895Z,31.04
2023-02-22T09:13:08.142Z,32.20
2023-02-22T09:15:36.550Z,30.42
2023-02-22T09:18:05.817Z,30.55
2023-02-22T09:20:32.902Z,31.59
2023-02-22T09:23:03.614Z,29.94
2023-02-22T09:25:31.097Z,29.02
2023-02-22T09:27:58.530Z,29.67
2023-02-22T09:30:34.396Z,29.17
2023-02-22T09:33:04.449Z,30.18
2023-02-22T09:35:31.865Z,30.65
2023-02-22T09:38:00.542Z,28.99
2023-02-22T09:40:31.040Z,29.39
2023-02-22T09:43:27.838Z,29.69
2023-02-22T09:46:13.718Z,28.87
2023-02-22T09:49:02.508Z,31.53
2023-02-22T09:51:38.052Z,29.62
2023-02-22T09:54:14.784Z,30.31
2023-02-22T09:56:44.342Z,30.84
2023-02-22T09:59:15.783Z,31.21
2023-02-22T10:01:50.317Z,30.32
2023-02-22T10:04:38.872Z,30.12
2023-02-22T10:07:18.496Z,29.85
2023-02-22T10:09:48.594Z,30.83
2023-02-22T10:12:30.347Z,31.00
2023-02-22T10:15:42.609Z,31.02
2023-02-22T10:18:31.215Z,30.65
2023-02-22T10:21:14.563Z,31.02
2023-02-22T10:24:17.258Z,29.60
2023-02-22T10:26:47.081Z,30.86
2023-02-22T10:29:29.830Z,31.42
2023-02-22T10:32:00.766Z,32.65
2023-02-22T10:34:36.643Z,32.15
2023-02-22T10:37:34.825Z,31.46
2023-02-22T10:40:23.143Z,31.04
2023-02-22T10:42:50.909Z,32.37
2023-02-22T10:45:30.073Z,32.13
2023-02-22T10:47:59.877Z,32.30
2023-02-22T10:50:31.257Z,32.25
2023-02-22T10:52:58.400Z,32.54
2023-02-22T10:55:25.860Z,33.01
2023-02-22T10:58:02.367Z,32.86
2023-02-22T11:00:33.301Z,33.34
2023-02-22T11:03:03.009Z,33.38
2023-02-22T11:05:37.021Z,32.89
2023-02-22T11:08:16.250Z,33.09
2023-02-22T11:10:43.644Z,32.45
2023-02-22T11:13:33.702Z,32.30
2023-02-22T11:16:17.568Z,32.73
2023-02-22T11:18:44.793Z,32.47
2023-02-22T11:21:14.163Z,32.98
2023-02-22T11:23:45.077Z,33.09
2023-02-22T11:26:17.693Z,33.62
2023-02-22T11:28:49.824Z,32.62
2023-02-22T11:31:21.129Z,32.28
2023-02-22T11:34:00.063Z,32.79
2023-02-22T11:36:40.623Z,33.28
2023-02-22T11:39:27.228Z,32.71
2023-02-22T11:41:56.753Z,32.35
2023-02-22T11:44:28.876Z,32.92
2023-02-22T11:47:01.699Z,33.17
2023-02-22T11:49:38.599Z,33.98
2023-02-22T11:52:27.014Z,34.02
2023-02-22T11:55:43.148Z,33.86
2023-02-22T11:58:45.876Z,34.77
2023-02-22T12:01:51.626Z,34.57
2023-02-22T12:04:55.840Z,34.88
2023-02-22T12:07:56.851Z,35.17
2023-02-22T12:10:55.620Z,35.76
2023-02-22T12:13:37.780Z,36.38
2023-02-22T12:16:27.193Z,36.46
2023-02-22T12:19:10.473Z,36.52
2023-02-22T12:21:42.944Z,36.93
2023-02-22T12:24:16.629Z,37.67
2023-02-22T12:26:59.019Z,38.84
2023-02-22T12:29:47.448Z,37.70
2023-02-22T12:32:33.512Z,39.61
2023-02-22T12:35:26.765Z,40.23
2023-02-22T12:38:04.992Z,39.31
2023-02-22T12:41:01.831Z,39.18
2023-02-22T12:43:36.664Z,38.96
2023-02-22T12:46:13.874Z,38.91
2023-02-22T12:48:48.112Z,39.15
2023-02-22T12:51:31.928Z,40.52
2023-02-22T12:54:02.049Z,40.47
2023-02-22T12:56:36.601Z,40.63
2023-02-22T12:59:15.478Z,41.40
2023-02-22T13:01:46.688Z,41.01
2023-02-22T13:04:20.924Z,40.76
2023-02-22T13:07:06.075Z,40.85
2023-02-22T13:10:18.983Z,40.74
2023-02-22T13:13:15.675Z,40.41
2023-02-22T13:15:57.831Z,40.51
2023-02-22T13:18:48.903Z,41.57
2023-02-22T13:21:34.450Z,40.83
2023-02-22T13:24:16.127Z,40.88
2023-02-22T13:26:52.308Z,40.49
2023-02-22T13:29:38.022Z,41.73
2023-02-22T13:32:20.949Z,41.09
2023-02-22T13:35:20.391Z,41.66
2023-02-22T13:37:56.497Z,41.37
2023-02-22T13:40:50.078Z,41.41
2023-02-22T13:43:43.777Z,41.67
2023-02-22T13:46:44.990Z,41.93
2023-02-22T13:49:39.849Z,42.10
2023-02-22T13:52:12.517Z,42.13
2023-02-22T13:54:48.739Z,42.24
2023-02-22T13:57:37.059Z,42.31
2023-02-22T14:00:16.637Z,42.75
2023-02-22T14:03:27.086Z,43.27
2023-02-22T14:05:57.376Z,43.31
2023-02-22T14:08:31.748Z,42.73
2023-02-22T14:11:00.994Z,42.56
2023-02-22T14:13:30.790Z,43.78
2023-02-22T14:16:00.995Z,43.30
2023-02-22T14:18:43.687Z,43.05
2023-02-22T14:21:21.140Z,43.97
2023-02-22T14:23:53.425Z,43.83
2023-02-22T14:26:31.422Z,43.82
2023-02-22T14:29:09.275Z,43.67
2023-02-22T14:31:51.093Z,43.90
2023-02-22T14:34:20.084Z,43.87
2023-02-22T14:37:17.471Z,44.52
2023-02-22T14:39:51.220Z,44.25
2023-02-22T14:42:21.599Z,44.44
2023-02-22T14:44:49.040Z,44.87
2023-02-22T14:47:32.268Z,44.54
2023-02-22T14:50:13.132Z,44.36
2023-02-22T14:52:42.855Z,44.24
2023-02-22T14:55:23.987Z,44.94
2023-02-22T14:58:08.894Z,44.69
2023-02-22T15:00:47.578Z,45.00
2023-02-22T15:03:37.474Z,45.54
2023-02-22T15:06:16.313Z,45.58
2023-02-22T15:08:50.900Z,45.17
2023-02-22T15:11:27.974Z,45.29
2023-02-22T15:13:55.232Z,45.73
2023-02-22T15:16:23.959Z,46.20
2023-02-22T15:18:55.210Z,46.08
2023-02-22T15:21:27.149Z,46.32
2023-02-22T15:24:03.816Z,45.81
2023-02-22T15:26:51.949Z,46.67
2023-02-22T15:29:44.689Z,46.01
2023-02-22T15:32:30.480Z,46.01
2023-02-22T15:35:29.282Z,46.11
2023-02-22T15:38:16.594Z,46.44
2023-02-22T15:40:45.368Z,47.67
2023-02-22T15:43:24.638Z,46.57
2023-02-22T15:45:52.513Z,46.80
2023-02-22T15:48:20.266Z,46.36
2023-02-22T15:51:10.834Z,46.41
2023-02-22T15:53:49.841Z,47.17
2023-02-22T15:56:27.082Z,46.88
2023-02-22T15:59:00.796Z,46.81
2023-02-22T16:01:57.059Z,46.71
2023-02-22T16:04:31.672Z,47.00
2023-02-22T16:07:17.334Z,47.11
2023-02-22T16:09:51.987Z,47.56
2023-02-22T16:12:22.113Z,48.42
2023-02-22T16:14:50.410Z,47.89
2023-02-22T16:17:35.886Z,48.26
2023-02-22T16:20:25.092Z,47.94
2023-02-22T16:22:52.370Z,47.66
2023-02-22T16:25:19.445Z,47.86
2023-02-22T16:28:34.197Z,48.53
2023-02-22T16:31:02.088Z,48.35
2023-02-22T16:33:34.149Z,48.39
2023-02-22T16:36:06.534Z,48.04
2023-02-22T16:38:38.547Z,48.49
2023-02-22T16:41:07.717Z,48.82
2023-02-22T16:43:36.504Z,48.52
2023-02-22T16:46:07.087Z,48.34
2023-02-22T16:48:38.480Z,48.88
2023-02-22T16:51:27.091Z,50.07
2023-02-22T16:53:56.088Z,48.96
2023-02-22T16:56:30.895Z,50.37
2023-02-22T16:59:04.200Z,49.83
2023-02-22T17:01:35.308Z,49.26
2023-02-22T17:04:03.025Z,49.18
2023-02-22T17:06:30.250Z,49.17
2023-02-22T17:08:57.352Z,49.20
2023-02-22T17:11:24.644Z,49.52
2023-02-22T17:13:52.084Z,50.18
2023-02-22T17:16:19.560Z,50.65
2023-02-22T17:18:47.023Z,50.38
2023-02-22T17:21:14.936Z,50.82
2023-02-22T17:23:44.507Z,50.38
2023-02-22T17:26:16.302Z,50.70
2023-02-22T17:28:44.355Z,50.71
2023-02-22T17:31:21.168Z,50.90
2023-02-22T17:33:48.720Z,51.38
2023-02-22T17:36:16.301Z,50.81
2023-02-22T17:38:44.004Z,50.15
2023-02-22T17:41:11.293Z,50.13
2023-02-22T17:43:38.496Z,50.24
2023-02-22T17:46:08.196Z,50.97
2023-02-22T17:48:35.682Z,50.42
2023-02-22T17:51:07.883Z,50.19
2023-02-22T17:53:35.748Z,50.41
2023-02-22T17:56:16.863Z,50.73
2023-02-22T17:58:50.482Z,50.32
2023-02-22T18:01:25.145Z,50.58
2023-02-22T18:03:53.539Z,50.73
2023-02-22T18:06:25.168Z,50.90
2023-02-22T18:08:55.823Z,50.58
2023-02-22T18:11:26.568Z,50.40
2023-02-22T18:13:58.080Z,50.74
2023-02-22T18:16:26.280Z,50.96
2023-02-22T18:18:54.729Z,51.51
2023-02-22T18:21:22.707Z,51.14
2023-02-22T18:23:49.774Z,51.74
2023-02-22T18:26:18.719Z,51.01
2023-02-22T18:28:48.826Z,51.00
2023-02-22T18:31:20.756Z,51.55
2023-02-22T18:33:51.197Z,51.21
2023-02-22T18:36:23.702Z,50.90
2023-02-22T18:38:55.166Z,51.22
2023-02-22T18:41:27.197Z,51.09
2023-02-22T18:43:57.759Z,51.07
2023-02-22T18:46:25.743Z,51.94
2023-02-22T18:48:54.902Z,51.98
2023-02-22T18:51:23.313Z,52.54
2023-02-22T18:53:55.121Z,52.15
2023-02-22T18:56:22.834Z,51.97
2023-02-22T18:58:54.788Z,51.76
2023-02-22T19:01:23.236Z,51.95
2023-02-22T19:03:52.028Z,51.74
2023-02-22T19:06:22.212Z,51.51
2023-02-22T19:08:50.885Z,51.96
2023-02-22T19:11:23.242Z,52.16
2023-02-22T19:13:54.170Z,52.33
2023-02-22T19:16:26.592Z,52.61
2023-02-22T19:18:57.629Z,52.06
2023-02-22T19:21:27.097Z,51.86
2023-02-22T19:24:00.975Z,53.03
2023-02-22T19:26:29.603Z,52.41
2023-02-22T19:28:58.865Z,53.34
2023-02-22T19:31:29.889Z,52.57
2023-02-22T19:34:04.979Z,52.91
2023-02-22T19:36:32.790Z,53.06
2023-02-22T19:39:03.070Z,52.67
2023-02-22T19:41:31.060Z,52.43
2023-02-22T19:43:58.782Z,52.39
2023-02-22T19:46:25.930Z,52.46
2023-02-22T19:48:55.474Z,53.31
2023-02-22T19:51:25.720Z,53.11
2023-02-22T19:53:53.250Z,52.84
2023-02-22T19:56:27.229Z,52.83
2023-02-22T19:58:56.643Z,52.70
2023-02-22T20:01:26.451Z,52.48
2023-02-22T20:03:59.956Z,52.23
2023-02-22T20:06:30.005Z,52.64
2023-02-22T20:08:57.920Z,53.13
2023-02-22T20:11:25.586Z,53.50
2023-02-22T20:13:55.677Z,53.32
2023-02-22T20:16:23.826Z,53.17
2023-02-22T20:18:51.468Z,53.40
2023-02-22T20:21:27.441Z,53.54
2023-02-22T20:23:57.391Z,53.46
2023-02-22T20:26:26.235Z,54.24
2023-02-22T20:28:53.869Z,54.15
2023-02-22T20:31:21.727Z,53.47
2023-02-22T20:33:56.889Z,53.50
2023-02-22T20:36:25.390Z,53.97
2023-02-22T20:38:57.776Z,53.64
2023-02-22T20:41:31.689Z,54.07
2023-02-22T20:44:00.616Z,53.70
2023-02-22T20:46:31.793Z,53.75
2023-02-22T20:49:01.518Z,53.87
2023-02-22T20:51:29.737Z,53.70
2023-02-22T20:54:00.638Z,53.97
2023-02-22T20:56:30.526Z,53.89
2023-02-22T20:59:02.261Z,53.96
2023-02-22T21:01:30.173Z,54.32
2023-02-22T21:04:02.309Z,54.14
2023-02-22T21:06:29.917Z,54.78
2023-02-22T21:09:00.082Z,54.17
2023-02-22T21:11:30.811Z,53.87
2023-02-22T21:13:58.221Z,54.06
2023-02-22T21:16:28.463Z,53.86
2023-02-22T21:19:01.355Z,54.17
2023-02-22T21:21:29.361Z,53.86
2023-02-22T21:23:58.025Z,54.75
2023-02-22T21:26:27.729Z,54.73
2023-02-22T21:28:57.787Z,54.57
2023-02-22T21:31:25.752Z,54.55
2023-02-22T21:33:56.090Z,54.90
2023-02-22T21:36:26.866Z,54.91
2023-02-22T21:38:59.353Z,55.29
2023-02-22T21:41:31.160Z,54.93
2023-02-22T21:43:59.285Z,54.23
2023-02-22T21:46:29.190Z,54.11
2023-02-22T21:48:58.993Z,54.19
2023-02-22T21:51:32.078Z,54.32
2023-02-22T21:54:06.267Z,54.48
2023-02-22T21:56:38.486Z,54.71
2023-02-22T21:59:11.777Z,54.42
2023-02-22T22:01:50.640Z,54.98
2023-02-22T22:04:20.467Z,55.07
2023-02-22T22:06:51.027Z,55.23
2023-02-22T22:09:19.060Z,55.03
2023-02-22T22:11:49.752Z,55.02
2023-02-22T22:14:18.893Z,54.79
2023-02-22T22:16:47.845Z,55.70
2023-02-22T22:19:15.225Z,55.17
2023-02-22T22:21:42.943Z,55.06
2023-02-22T22:24:10.915Z,55.24
2023-02-22T22:26:38.767Z,55.23
2023-02-22T22:29:06.287Z,55.24
2023-02-22T22:31:33.458Z,55.03
2023-02-22T22:34:00.607Z,55.37
2023-02-22T22:36:28.043Z,55.10
2023-02-22T22:38:57.752Z,55.37
2023-02-22T22:41:28.234Z,55.08
2023-02-22T22:43:56.221Z,55.01
2023-02-22T22:46:23.539Z,55.53
2023-02-22T22:48:50.802Z,55.61
2023-02-22T22:51:21.055Z,55.63
2023-02-22T22:53:49.935Z,55.94
2023-02-22T22:56:29.398Z,56.72
2023-02-22T22:58:59.417Z,55.66
2023-02-22T23:01:34.345Z,55.95
2023-02-22T23:04:03.835Z,55.96
2023-02-22T23:06:33.919Z,55.80
2023-02-22T23:09:13.368Z,55.69
2023-02-22T23:11:51.000Z,55.87
2023-02-22T23:14:22.722Z,55.40
2023-02-22T23:16:52.762Z,55.74
2023-02-22T23:19:20.222Z,55.40
2023-02-22T23:21:49.318Z,56.21
2023-02-22T23:24:19.478Z,55.50
2023-02-22T23:26:49.948Z,55.54
2023-02-22T23:29:19.890Z,56.08
2023-02-22T23:31:50.861Z,55.53
2023-02-22T23:34:19.046Z,56.14
2023-02-22T23:36:46.898Z,56.53
2023-02-22T23:39:16.469Z,56.47
2023-02-22T23:41:43.680Z,56.46
2023-02-22T23:44:14.113Z,57.20
2023-02-22T23:46:41.411Z,56.03
2023-02-22T23:49:10.046Z,56.78
2023-02-22T23:51:39.605Z,57.33
2023-02-22T23:54:12.325Z,57.18
2023-02-22T23:56:40.462Z,57.19
2023-02-22T23:59:12.709Z,56.59
